Time;durP1;ratioP1;P1;durP2;ratioP2;P2;SDS_P1;SDS_P2;PMS_P1;PMS_P2;Temp;Humidity;BMP_temperature;BMP_pressure;BME280_temperature;BME280_humidity;BME280_pressure;Samples;Min_cycle;Max_cycle;Signal;HPM_P1;HPM_P2
2023/09/01 00:00:12;;;;;;;4.82;1.83;;;;;;;-142.57;66.27;115900.28;4998529;28;20035;-81
2023/09/01 00:02:40;;;;;;;7.03;2.10;;;;;;;-142.57;66.62;115900.28;4998255;28;20034;-83
2023/09/01 00:05:09;;;;;;;7.03;2.08;;;;;;;-142.57;66.68;115900.28;4997816;28;20136;-82
2023/09/01 00:07:35;;;;;;;4.45;2.10;;;;;;;-142.57;67.42;115900.28;4997145;28;20034;-81
2023/09/01 00:10:01;;;;;;;5.22;2.75;;;;;;;-142.57;67.72;115900.28;4997360;28;20480;-80
2023/09/01 00:12:26;;;;;;;7.68;2.80;;;;;;;-142.57;67.84;115900.28;4997522;28;20137;-82
2023/09/01 00:14:53;;;;;;;7.32;2.85;;;;;;;-142.57;68.72;115900.28;4996601;28;20492;-81
2023/09/01 00:17:18;;;;;;;6.68;2.75;;;;;;;-142.57;69.28;115900.28;4997991;28;20050;-82
2023/09/01 00:19:44;;;;;;;6.32;2.47;;;;;;;-142.57;69.76;115900.28;4997936;28;20030;-81
2023/09/01 00:22:10;;;;;;;8.75;2.50;;;;;;;-142.57;70.26;115900.28;4997868;28;20040;-81
2023/09/01 00:24:37;;;;;;;7.97;3.20;;;;;;;-142.57;70.34;115900.28;4997748;28;20121;-83
2023/09/01 00:27:02;;;;;;;10.60;3.03;;;;;;;-142.57;70.32;115900.28;4997745;28;20084;-82
2023/09/01 00:29:28;;;;;;;8.52;2.83;;;;;;;-142.57;71.14;115900.28;4996143;28;20030;-83
2023/09/01 00:31:53;;;;;;;9.85;3.03;;;;;;;-142.57;71.07;115900.28;4997448;28;20476;-81
2023/09/01 00:34:22;;;;;;;5.50;2.50;;;;;;;-142.57;71.52;115900.28;4996344;28;20042;-81
2023/09/01 00:36:49;;;;;;;7.97;3.17;;;;;;;-142.57;71.98;115900.28;4997668;28;20399;-82
2023/09/01 00:39:14;;;;;;;5.15;2.97;;;;;;;-142.57;71.96;115900.28;4997476;28;20043;-82
2023/09/01 00:41:40;;;;;;;9.50;2.90;;;;;;;-142.57;71.65;115900.28;4995757;28;20042;-82
2023/09/01 00:44:06;;;;;;;8.65;3.10;;;;;;;-142.57;71.81;115900.28;4996527;28;20038;-84
2023/09/01 00:46:32;;;;;;;5.68;2.80;;;;;;;-142.57;72.62;115900.28;4996772;28;20057;-81
2023/09/01 00:48:58;;;;;;;6.80;2.90;;;;;;;-142.57;71.72;115900.28;4995372;28;20026;-84
2023/09/01 00:51:25;;;;;;;5.38;2.17;;;;;;;-142.57;71.96;115900.28;4997010;28;20034;-82
2023/09/01 00:53:51;;;;;;;8.52;2.80;;;;;;;-142.57;72.97;115900.28;4996851;28;20026;-83
2023/09/01 00:56:17;;;;;;;6.35;2.88;;;;;;;-142.57;72.35;115900.28;4995123;28;20372;-82
2023/09/01 00:58:43;;;;;;;6.95;2.60;;;;;;;-142.57;72.67;115900.28;4995098;28;20589;-82
2023/09/01 01:01:08;;;;;;;6.78;2.78;;;;;;;-142.57;71.96;115900.28;4995265;28;20069;-83
2023/09/01 01:03:34;;;;;;;7.35;2.65;;;;;;;-142.57;73.24;115900.28;4996913;28;20411;-82
2023/09/01 01:06:21;;;;;;;5.15;2.45;;;;;;;-142.57;75.19;115900.28;4996687;28;20041;-83
2023/09/01 01:09:08;;;;;;;7.63;3.10;;;;;;;-142.57;76.00;115900.28;4996048;28;20499;-83
2023/09/01 01:11:43;;;;;;;6.35;3.00;;;;;;;-142.57;76.49;115900.28;4995827;28;20039;-82
2023/09/01 01:14:33;;;;;;;5.55;2.60;;;;;;;-142.57;78.66;115900.28;4994632;28;20045;-82
2023/09/01 01:16:58;;;;;;;7.70;2.60;;;;;;;-142.57;81.22;115900.28;4995236;28;20522;-82
2023/09/01 01:19:37;;;;;;;10.55;3.30;;;;;;;-142.57;85.30;115900.28;4995707;28;20034;-83
2023/09/01 01:22:05;;;;;;;6.63;2.97;;;;;;;-142.57;84.94;115900.28;4996012;28;20041;-82
2023/09/01 01:24:32;;;;;;;6.47;2.97;;;;;;;-142.57;84.77;115900.28;4994411;28;20026;-84
2023/09/01 01:26:58;;;;;;;8.75;2.60;;;;;;;-142.57;84.44;115900.28;4995818;28;20117;-81
2023/09/01 01:29:23;;;;;;;8.43;2.63;;;;;;;-142.57;83.53;115900.28;4995679;28;20129;-82
2023/09/01 01:31:52;;;;;;;3.88;1.90;;;;;;;-142.57;82.05;115900.28;4993977;28;20109;-82
2023/09/01 01:34:23;;;;;;;7.35;2.33;;;;;;;-142.57;80.25;115900.28;4996073;28;20038;-82
2023/09/01 01:37:10;;;;;;;5.57;2.10;;;;;;;-142.57;81.46;115900.28;4996386;28;20097;-82
2023/09/01 01:39:38;;;;;;;5.47;2.30;;;;;;;-142.57;81.65;115900.28;4994747;28;20046;-83
2023/09/01 01:42:14;;;;;;;6.70;2.58;;;;;;;-142.57;82.56;115900.28;4995857;28;20029;-83
2023/09/01 01:44:43;;;;;;;6.45;2.50;;;;;;;-142.57;83.83;115900.28;4994717;28;20042;-82
2023/09/01 01:47:11;;;;;;;6.20;2.35;;;;;;;-142.57;85.81;115900.28;4995439;28;20038;-82
2023/09/01 01:49:37;;;;;;;4.75;2.20;;;;;;;-142.57;86.24;115900.28;4994833;28;20480;-82
2023/09/01 01:52:04;;;;;;;5.07;2.10;;;;;;;-142.57;87.88;115900.28;4995705;28;20478;-83
2023/09/01 01:54:30;;;;;;;9.23;3.58;;;;;;;-142.57;88.55;115900.28;4994511;28;20041;-84
2023/09/01 01:56:56;;;;;;;9.05;4.68;;;;;;;-142.57;87.29;115900.28;4995481;28;20121;-84
2023/09/01 01:59:22;;;;;;;11.13;2.80;;;;;;;-142.57;85.88;115900.28;4994122;28;20457;-84
2023/09/01 02:01:47;;;;;;;7.75;3.33;;;;;;;-142.57;86.06;115900.28;4994300;28;20438;-82
2023/09/01 02:04:13;;;;;;;8.30;3.25;;;;;;;-142.57;87.85;115900.28;4993724;28;20044;-83
2023/09/01 02:06:39;;;;;;;8.30;3.67;;;;;;;-142.57;86.47;115900.28;4995471;28;20064;-82
2023/09/01 02:09:09;;;;;;;6.25;2.42;;;;;;;-142.57;87.84;115900.28;4993174;28;20454;-82
2023/09/01 02:11:38;;;;;;;11.30;4.40;;;;;;;-142.57;87.07;115900.28;4993729;28;20441;-81
2023/09/01 02:14:06;;;;;;;12.07;5.43;;;;;;;-142.57;86.50;115900.28;4994750;28;20559;-82
2023/09/01 02:16:32;;;;;;;7.93;3.13;;;;;;;-142.57;87.07;115900.28;4994657;28;20126;-82
2023/09/01 02:18:58;;;;;;;9.48;2.58;;;;;;;-142.57;88.73;115900.28;4993549;28;20471;-84
2023/09/01 02:21:24;;;;;;;5.10;2.60;;;;;;;-142.57;87.44;115900.28;4994943;28;20494;-81
2023/09/01 02:23:50;;;;;;;5.70;2.13;;;;;;;-142.57;87.71;115900.28;4994921;28;20035;-82
2023/09/01 02:26:17;;;;;;;4.85;2.13;;;;;;;-142.57;87.25;115900.28;4993285;28;20039;-84
2023/09/01 02:28:43;;;;;;;6.00;2.60;;;;;;;-142.57;87.63;115900.28;4993269;28;20038;-82
2023/09/01 02:31:11;;;;;;;5.38;2.70;;;;;;;-142.57;88.65;115900.28;4993053;28;20133;-82
2023/09/01 02:33:36;;;;;;;6.10;2.20;;;;;;;-142.57;91.20;115900.28;4994414;28;20053;-83
2023/09/01 02:36:32;;;;;;;6.82;2.35;;;;;;;-142.57;89.55;115900.28;4993900;28;20480;-83
2023/09/01 02:38:58;;;;;;;8.40;2.50;;;;;;;-142.57;89.35;115900.28;4994568;28;20042;-82
2023/09/01 02:41:24;;;;;;;7.13;2.45;;;;;;;-142.57;89.83;115900.28;4992989;28;20045;-82
2023/09/01 02:43:51;;;;;;;6.43;2.50;;;;;;;-142.57;90.52;115900.28;4994013;28;20085;-83
2023/09/01 02:46:16;;;;;;;6.18;2.05;;;;;;;-142.57;90.12;115900.28;4993602;28;20534;-81
2023/09/01 02:48:42;;;;;;;5.47;2.13;;;;;;;-142.57;88.51;115900.28;4994245;28;20105;-81
2023/09/01 02:51:07;;;;;;;4.13;2.00;;;;;;;-142.57;88.48;115900.28;4994460;28;20674;-80
2023/09/01 02:53:34;;;;;;;6.05;2.30;;;;;;;-142.57;89.70;115900.28;4994429;28;20038;-82
2023/09/01 02:56:00;;;;;;;7.35;2.20;;;;;;;-142.57;89.64;115900.28;4994567;28;20042;-82
2023/09/01 02:58:25;;;;;;;8.00;2.75;;;;;;;-142.57;88.48;115900.28;4993089;28;20468;-81
2023/09/01 03:00:51;;;;;;;5.72;2.22;;;;;;;-142.57;88.26;115900.28;4992133;28;20069;-82
2023/09/01 03:03:20;;;;;;;9.43;2.58;;;;;;;-142.57;88.76;115900.28;4989736;28;20022;-82
2023/09/01 03:05:48;;;;;;;5.05;2.28;;;;;;;-142.57;88.26;115900.28;4974151;28;20059;-82
2023/09/01 03:08:14;;;;;;;10.02;2.53;;;;;;;-142.57;89.31;115900.28;4957894;28;20035;-80
2023/09/01 03:10:41;;;;;;;6.68;2.38;;;;;;;-142.57;89.45;115900.28;4973514;28;20448;-81
2023/09/01 03:13:07;;;;;;;5.75;2.15;;;;;;;-142.57;93.11;115900.28;4974153;28;20039;-81
2023/09/01 03:15:33;;;;;;;6.18;2.28;;;;;;;-142.57;97.44;115900.28;4973501;28;20455;-81
2023/09/01 03:18:02;;;;;;;6.25;2.33;;;;;;;-142.57;98.95;115900.28;4973447;28;20061;-82
2023/09/01 03:20:28;;;;;;;4.03;2.30;;;;;;;-142.57;99.06;115900.28;4974825;28;20069;-82
2023/09/01 03:22:53;;;;;;;6.60;2.60;;;;;;;-142.57;99.20;115900.28;4978028;28;20026;-80
2023/09/01 03:25:19;;;;;;;7.20;2.30;;;;;;;-142.57;98.88;115900.28;4977848;28;20038;-82
2023/09/01 03:27:45;;;;;;;6.22;2.40;;;;;;;-142.57;97.76;115900.28;4977765;28;20042;-82
2023/09/01 03:30:11;;;;;;;8.57;2.20;;;;;;;-142.57;97.09;115900.28;4978929;28;20472;-81
2023/09/01 03:32:39;;;;;;;6.15;2.15;;;;;;;-142.57;98.60;115900.28;4977098;28;20484;-81
2023/09/01 03:35:05;;;;;;;5.38;2.25;;;;;;;-142.57;98.19;115900.28;4978119;28;20046;-83
2023/09/01 03:37:31;;;;;;;4.82;2.28;;;;;;;-142.57;99.02;115900.28;4978098;28;20060;-85
2023/09/01 03:39:57;;;;;;;6.63;2.30;;;;;;;-142.57;98.84;115900.28;4980466;28;20033;-82
2023/09/01 03:42:22;;;;;;;6.60;2.33;;;;;;;-142.57;98.55;115900.28;4980367;28;20118;-81
2023/09/01 03:44:49;;;;;;;5.57;2.40;;;;;;;-142.57;100.00;115900.28;4989829;28;20135;-82
2023/09/01 03:47:15;;;;;;;6.70;2.80;;;;;;;-142.57;100.00;115900.28;4997799;28;20042;-83
2023/09/01 03:49:41;;;;;;;6.68;2.42;;;;;;;-142.57;100.00;115900.28;4997946;28;20029;-82
2023/09/01 03:52:06;;;;;;;5.10;1.80;;;;;;;-142.57;100.00;115900.28;4997222;28;20049;-82
2023/09/01 03:54:35;;;;;;;6.80;2.10;;;;;;;-142.57;100.00;115900.28;4998432;28;20045;-84
2023/09/01 03:57:00;;;;;;;5.38;2.15;;;;;;;-142.57;100.00;115900.28;4998928;28;20042;-80
2023/09/01 03:59:26;;;;;;;5.22;2.25;;;;;;;-142.57;100.00;115900.28;4997320;28;20030;-83
2023/09/01 04:01:51;;;;;;;12.05;2.60;;;;;;;-142.57;100.00;115900.28;4999561;28;20031;-80
2023/09/01 04:04:18;;;;;;;7.95;2.53;;;;;;;-142.57;100.00;115900.28;4998351;28;20038;-85
2023/09/01 04:06:44;;;;;;;5.47;2.25;;;;;;;-142.57;100.00;115900.28;4997978;28;20423;-81
2023/09/01 04:09:14;;;;;;;6.88;2.25;;;;;;;-142.57;100.00;115900.28;4997826;28;20110;-81
2023/09/01 04:11:41;;;;;;;7.50;2.83;;;;;;;-142.57;100.00;115900.28;4998372;28;20054;-79
2023/09/01 04:14:09;;;;;;;8.07;2.50;;;;;;;-142.57;100.00;115900.28;4996253;28;20069;-80
2023/09/01 04:16:35;;;;;;;8.77;2.30;;;;;;;-142.57;100.00;115900.28;4996779;28;20038;-81
2023/09/01 04:19:00;;;;;;;7.00;2.42;;;;;;;-142.57;100.00;115900.28;4998589;28;20041;-83
2023/09/01 04:21:26;;;;;;;7.85;3.00;;;;;;;-142.57;100.00;115900.28;4981966;28;20034;-82
2023/09/01 04:23:51;;;;;;;7.28;2.55;;;;;;;-142.57;100.00;115900.28;4997411;28;20482;-84
2023/09/01 04:26:16;;;;;;;6.20;2.10;;;;;;;-142.57;100.00;115900.28;5000767;28;20041;-88
2023/09/01 04:28:42;;;;;;;8.07;2.38;;;;;;;-142.57;100.00;115900.28;4999585;28;20411;-83
2023/09/01 04:31:15;;;;;;;8.25;2.45;;;;;;;-142.57;100.00;115900.28;4997783;28;20038;-84
2023/09/01 04:33:43;;;;;;;6.72;2.45;;;;;;;-142.57;100.00;115900.28;4997881;28;20054;-82
2023/09/01 04:36:09;;;;;;;6.03;2.33;;;;;;;-142.57;100.00;115900.28;4997480;28;20033;-87
2023/09/01 04:38:35;;;;;;;9.60;2.50;;;;;;;-142.57;100.00;115900.28;4997509;28;20053;-80
2023/09/01 04:41:01;;;;;;;6.35;2.70;;;;;;;-142.57;100.00;115900.28;4989721;28;20130;-82
2023/09/01 04:43:31;;;;;;;7.97;2.33;;;;;;;-142.57;100.00;115900.28;4976359;28;20098;-79
2023/09/01 04:45:57;;;;;;;7.90;2.78;;;;;;;-142.57;100.00;115900.28;4976136;28;20043;-80
2023/09/01 04:48:24;;;;;;;8.32;3.15;;;;;;;-142.57;100.00;115900.28;4977244;28;20027;-80
2023/09/01 04:50:50;;;;;;;9.73;3.20;;;;;;;-142.57;100.00;115900.28;4979001;28;20034;-86
2023/09/01 04:53:16;;;;;;;7.13;2.95;;;;;;;-142.57;100.00;115900.28;4980900;28;20369;-88
2023/09/01 04:55:45;;;;;;;6.70;2.90;;;;;;;-142.57;100.00;115900.28;4969300;28;20035;-85
2023/09/01 04:58:10;;;;;;;7.25;2.95;;;;;;;-142.57;100.00;115900.28;4998261;28;20022;-86
2023/09/01 05:00:37;;;;;;;9.55;2.70;;;;;;;-142.57;100.00;115900.28;4999143;28;20070;-86
2023/09/01 05:03:03;;;;;;;10.50;3.00;;;;;;;-142.57;100.00;115900.28;4998897;28;20633;-87
2023/09/01 05:05:29;;;;;;;10.20;2.67;;;;;;;-142.57;100.00;115900.28;4983337;28;20039;-86
2023/09/01 05:07:59;;;;;;;5.75;2.17;;;;;;;-142.57;100.00;115900.28;4982944;28;20121;-86
2023/09/01 05:10:25;;;;;;;6.68;2.92;;;;;;;-142.57;100.00;115900.28;4978854;28;20027;-86
2023/09/01 05:12:50;;;;;;;9.55;2.70;;;;;;;-142.57;100.00;115900.28;4980150;28;20485;-85
2023/09/01 05:15:16;;;;;;;6.63;2.70;;;;;;;-142.57;100.00;115900.28;4979108;28;20065;-88
2023/09/01 05:17:42;;;;;;;13.00;3.08;;;;;;;-142.57;96.64;115900.28;4977499;28;20047;-86
2023/09/01 05:20:11;;;;;;;7.43;3.03;;;;;;;-142.57;92.77;115900.28;4978165;28;20491;-84
2023/09/01 05:22:36;;;;;;;12.00;2.50;;;;;;;-142.57;89.78;115900.28;4978529;28;20691;-85
2023/09/01 05:25:03;;;;;;;10.13;2.92;;;;;;;-142.57;90.92;115900.28;4962478;28;20105;-84
2023/09/01 05:27:28;;;;;;;6.90;2.50;;;;;;;-142.57;87.41;115900.28;4977770;28;20081;-85
2023/09/01 05:29:54;;;;;;;13.38;2.72;;;;;;;-142.57;83.68;115900.28;4977347;28;20034;-84
2023/09/01 05:32:22;;;;;;;11.48;2.42;;;;;;;-142.57;73.99;115900.28;4980104;28;20045;-86
2023/09/01 05:34:47;;;;;;;7.55;2.40;;;;;;;-142.57;64.98;115900.28;4981761;28;20469;-85
2023/09/01 05:37:13;;;;;;;8.18;2.25;;;;;;;-142.57;58.78;115900.28;4980429;28;20034;-83
2023/09/01 05:39:40;;;;;;;9.98;2.63;;;;;;;-142.57;56.24;115900.28;4978992;28;20042;-84
2023/09/01 05:42:07;;;;;;;9.55;2.60;;;;;;;-142.57;58.75;115900.28;4978639;28;20039;-87
2023/09/01 05:44:33;;;;;;;9.38;2.97;;;;;;;-142.57;59.15;115900.28;4978831;28;20030;-85
2023/09/01 05:46:58;;;;;;;10.50;2.90;;;;;;;-142.57;55.77;115900.28;4961947;28;20481;-86
2023/09/01 05:49:24;;;;;;;10.57;2.65;;;;;;;-142.57;60.24;115900.28;4981044;28;20035;-82
2023/09/01 05:51:50;;;;;;;14.98;3.65;;;;;;;-142.57;58.56;115900.28;4987566;28;20551;-81
2023/09/01 05:54:18;;;;;;;7.03;2.42;;;;;;;-142.57;62.46;115900.28;4981144;28;20070;-86
2023/09/01 05:56:43;;;;;;;11.63;2.78;;;;;;;-142.57;58.70;115900.28;4975802;28;20058;-87
2023/09/01 05:59:09;;;;;;;8.35;2.72;;;;;;;-142.57;52.41;115900.28;4978784;28;20090;-87
2023/09/01 06:01:40;;;;;;;7.43;2.72;;;;;;;-142.57;53.14;115900.28;4977215;28;20035;-85
2023/09/01 06:04:06;;;;;;;7.82;2.85;;;;;;;-142.57;55.07;115900.28;4977593;28;20035;-87
2023/09/01 06:06:33;;;;;;;7.43;2.60;;;;;;;-142.57;49.75;115900.28;4978066;28;20065;-87
2023/09/01 06:08:59;;;;;;;7.22;2.55;;;;;;;-142.57;50.61;115900.28;4976940;28;20061;-86
2023/09/01 06:11:25;;;;;;;8.07;2.55;;;;;;;-142.57;56.24;115900.28;4975411;28;20038;-85
2023/09/01 06:13:51;;;;;;;8.50;2.85;;;;;;;-142.57;58.96;115900.28;4975268;28;20404;-84
2023/09/01 06:16:16;;;;;;;13.27;2.42;;;;;;;-142.57;60.11;115900.28;4976475;28;20043;-85
2023/09/01 06:18:42;;;;;;;14.40;3.28;;;;;;;-142.57;61.87;115900.28;4976782;28;20491;-85
2023/09/01 06:21:10;;;;;;;6.15;2.50;;;;;;;-142.57;63.50;115900.28;4977123;28;20110;-84
2023/09/01 06:23:40;;;;;;;8.25;3.00;;;;;;;-142.57;60.67;115900.28;4975860;28;20041;-84
2023/09/01 06:26:06;;;;;;;12.15;2.80;;;;;;;-142.57;61.68;115900.28;4974979;28;20399;-86
2023/09/01 06:28:33;;;;;;;11.55;2.60;;;;;;;-142.57;61.75;115900.28;4978133;28;20031;-87
2023/09/01 06:31:05;;;;;;;17.10;3.22;;;;;;;-142.57;60.82;115900.28;4978329;28;20038;-87
2023/09/01 06:33:30;;;;;;;6.72;2.20;;;;;;;-142.57;54.14;115900.28;4977310;28;20520;-88
2023/09/01 06:35:56;;;;;;;11.88;2.35;;;;;;;-142.57;50.68;115900.28;4977868;28;20061;-87
2023/09/01 06:38:21;;;;;;;6.25;2.00;;;;;;;-142.57;48.59;115900.28;4978541;28;20035;-86
2023/09/01 06:40:50;;;;;;;7.68;1.85;;;;;;;-142.57;46.69;115900.28;4960385;28;20031;-88
2023/09/01 06:43:15;;;;;;;4.32;1.90;;;;;;;-142.57;44.75;115900.28;4977302;28;20058;-86
2023/09/01 06:45:41;;;;;;;8.48;2.35;;;;;;;-142.57;41.86;115900.28;4974973;28;20022;-86
2023/09/01 06:48:06;;;;;;;8.48;2.42;;;;;;;-142.57;41.57;115900.28;4976355;28;20034;-87
2023/09/01 06:50:32;;;;;;;9.35;2.25;;;;;;;-142.57;45.69;115900.28;4976806;28;20042;-86
2023/09/01 06:52:58;;;;;;;5.72;2.05;;;;;;;-142.57;44.80;115900.28;4976842;28;20502;-86
2023/09/01 06:55:24;;;;;;;10.07;2.53;;;;;;;-142.57;41.93;115900.28;4977258;28;20045;-84
2023/09/01 06:57:49;;;;;;;7.32;1.98;;;;;;;-142.57;42.96;115900.28;4982117;28;20066;-84
2023/09/01 07:00:16;;;;;;;8.82;2.17;;;;;;;-142.57;41.44;115900.28;4975267;28;20039;-85
2023/09/01 07:02:41;;;;;;;5.07;2.13;;;;;;;-142.57;42.77;115900.28;4978034;28;20031;-86
2023/09/01 07:05:07;;;;;;;5.72;2.15;;;;;;;-142.57;42.29;115900.28;4978925;28;20027;-83
2023/09/01 07:07:32;;;;;;;5.90;1.90;;;;;;;-142.57;41.75;115900.28;4982727;28;20042;-86
2023/09/01 07:09:58;;;;;;;10.77;2.08;;;;;;;-142.57;41.83;115900.28;4997556;28;20035;-87
2023/09/01 07:12:27;;;;;;;9.90;1.70;;;;;;;-142.57;39.42;115900.28;5011033;28;20042;-85
2023/09/01 07:14:53;;;;;;;12.07;2.20;;;;;;;-142.57;37.69;115900.28;5015023;28;20120;-87
2023/09/01 07:17:24;;;;;;;11.02;1.90;;;;;;;-142.57;37.20;115900.28;5017168;28;20064;-89
2023/09/01 07:19:50;;;;;;;4.80;1.55;;;;;;;-142.57;37.32;115900.28;5016909;28;20407;-89
2023/09/01 07:26:06;;;;;;;6.40;2.25;;;;;;;-142.57;38.07;115900.28;5033335;28;20037;-89
2023/09/01 07:28:31;;;;;;;11.10;2.15;;;;;;;-142.57;39.12;115900.28;5035525;28;20042;-84
2023/09/01 07:31:00;;;;;;;4.00;1.67;;;;;;;-142.57;37.55;115900.28;5025572;28;20026;-84
2023/09/01 07:33:28;;;;;;;6.50;1.70;;;;;;;-142.57;37.46;115900.28;5022274;28;20482;-85
2023/09/01 07:35:53;;;;;;;8.60;1.73;;;;;;;-142.57;37.35;115900.28;5018979;28;20162;-84
2023/09/01 07:38:23;;;;;;;4.95;1.70;;;;;;;-142.57;36.46;115900.28;5019578;28;20056;-85
2023/09/01 07:40:49;;;;;;;5.50;1.58;;;;;;;-142.57;36.20;115900.28;5019546;28;20038;-86
2023/09/01 07:43:17;;;;;;;4.03;1.67;;;;;;;-142.57;36.90;115900.28;5017439;28;20447;-86
2023/09/01 07:45:43;;;;;;;6.43;2.03;;;;;;;-142.57;34.36;115900.28;5016828;28;20144;-85
2023/09/01 07:48:09;;;;;;;6.43;2.08;;;;;;;-142.57;35.77;115900.28;5014595;28;20062;-88
2023/09/01 07:50:35;;;;;;;6.57;2.22;;;;;;;-142.57;37.80;115900.28;5015408;28;20546;-84
2023/09/01 07:53:00;;;;;;;4.47;2.00;;;;;;;-142.57;36.61;115900.28;5016386;28;20034;-82
2023/09/01 07:55:26;;;;;;;7.13;2.03;;;;;;;-142.57;35.46;115900.28;5015724;28;20034;-83
2023/09/01 07:57:54;;;;;;;6.90;2.25;;;;;;;-142.57;35.87;115900.28;5015638;28;20052;-85
2023/09/01 08:00:26;;;;;;;3.75;1.58;;;;;;;-142.57;35.43;115900.28;5017938;28;20101;-91
2023/09/01 08:02:52;;;;;;;4.22;1.77;;;;;;;-142.57;34.30;115900.28;5018101;28;20029;-84
2023/09/01 08:05:17;;;;;;;5.15;2.10;;;;;;;-142.57;34.79;115900.28;5015795;28;20113;-86
2023/09/01 08:07:43;;;;;;;8.07;2.30;;;;;;;-142.57;34.93;115900.28;5019111;28;20038;-85
2023/09/01 08:10:12;;;;;;;5.90;2.00;;;;;;;-142.57;36.19;115900.28;5017060;28;20495;-86
2023/09/01 08:12:37;;;;;;;7.47;2.33;;;;;;;-142.57;35.60;115900.28;5019710;28;20092;-88
2023/09/01 08:15:09;;;;;;;11.18;2.28;;;;;;;-142.57;35.93;115900.28;5020234;28;20483;-90
2023/09/01 08:17:35;;;;;;;6.00;1.90;;;;;;;-142.57;36.15;115900.28;5020318;28;20493;-85
2023/09/01 08:20:03;;;;;;;6.88;2.33;;;;;;;-142.57;34.41;115900.28;5019363;28;20037;-81
2023/09/01 08:22:29;;;;;;;8.48;1.88;;;;;;;-142.57;35.82;115900.28;5017959;28;20034;-84
2023/09/01 08:24:54;;;;;;;10.10;2.50;;;;;;;-142.57;35.21;115900.28;5017585;28;20121;-81
2023/09/01 08:27:20;;;;;;;6.60;2.13;;;;;;;-142.57;35.20;115900.28;5017499;28;20048;-83
2023/09/01 08:29:45;;;;;;;8.45;2.00;;;;;;;-142.57;34.67;115900.28;5017366;28;20112;-82
2023/09/01 08:32:11;;;;;;;7.60;1.88;;;;;;;-142.57;35.22;115900.28;5017175;28;20069;-81
2023/09/01 08:34:37;;;;;;;9.45;2.42;;;;;;;-142.57;35.43;115900.28;5019150;28;20030;-81
2023/09/01 08:37:03;;;;;;;8.20;2.28;;;;;;;-142.57;35.40;115900.28;5017568;28;20168;-82
2023/09/01 08:39:29;;;;;;;6.80;2.00;;;;;;;-142.57;33.70;115900.28;5017100;28;20029;-81
2023/09/01 08:41:55;;;;;;;8.40;2.20;;;;;;;-142.57;34.25;115900.28;5016212;28;20037;-82
2023/09/01 08:44:24;;;;;;;7.18;1.90;;;;;;;-142.57;34.04;115900.28;5016964;28;20506;-82
2023/09/01 08:46:58;;;;;;;7.13;2.20;;;;;;;-142.57;33.50;115900.28;5017226;28;20045;-85
2023/09/01 08:49:28;;;;;;;9.48;2.30;;;;;;;-142.57;34.39;115900.28;5017551;28;20042;-83
2023/09/01 08:51:57;;;;;;;14.57;2.33;;;;;;;-142.57;34.45;115900.28;5018290;28;20043;-82
2023/09/01 08:54:23;;;;;;;7.30;2.08;;;;;;;-142.57;34.70;115900.28;5017182;28;20037;-82
2023/09/01 08:56:50;;;;;;;8.07;2.28;;;;;;;-142.57;34.74;115900.28;5017789;28;20037;-83
2023/09/01 08:59:15;;;;;;;8.07;2.35;;;;;;;-142.57;35.90;115900.28;5018393;28;20048;-81
2023/09/01 09:01:41;;;;;;;7.75;2.30;;;;;;;-142.57;34.05;115900.28;5017918;28;20033;-82
2023/09/01 09:04:07;;;;;;;6.82;2.42;;;;;;;-142.57;33.31;115900.28;5018161;28;20022;-83
2023/09/01 09:06:38;;;;;;;9.10;2.22;;;;;;;-142.57;33.15;115900.28;5018735;28;20495;-81
2023/09/01 09:09:14;;;;;;;10.18;2.60;;;;;;;-142.57;33.33;115900.28;5017246;28;20085;-85
2023/09/01 09:11:56;;;;;;;9.52;2.78;;;;;;;-142.57;33.32;115900.28;5018375;28;20034;-80
2023/09/01 09:14:21;;;;;;;9.32;2.42;;;;;;;-142.57;34.98;115900.28;5014789;28;20413;-80
2023/09/01 09:16:55;;;;;;;7.18;2.15;;;;;;;-142.57;33.84;115900.28;5016366;28;20072;-81
2023/09/01 09:19:26;;;;;;;7.93;2.88;;;;;;;-142.57;34.89;115900.28;5015300;28;20110;-82
2023/09/01 09:22:07;;;;;;;7.38;2.40;;;;;;;-142.57;34.57;115900.28;5015000;28;20101;-81
2023/09/01 09:24:35;;;;;;;6.45;1.80;;;;;;;-142.57;34.64;115900.28;5016093;28;20034;-83
2023/09/01 09:27:00;;;;;;;10.65;2.20;;;;;;;-142.57;34.78;115900.28;5016295;28;20459;-80
2023/09/01 09:29:36;;;;;;;7.78;2.35;;;;;;;-142.57;35.57;115900.28;5015237;28;20054;-81
2023/09/01 09:32:18;;;;;;;8.73;2.45;;;;;;;-142.57;34.84;115900.28;5016302;28;20036;-81
2023/09/01 09:35:05;;;;;;;6.72;2.42;;;;;;;-142.57;33.92;115900.28;5014831;28;20042;-82
2023/09/01 09:37:31;;;;;;;5.28;2.20;;;;;;;-142.57;33.81;115900.28;5014834;28;20105;-80
2023/09/01 09:40:14;;;;;;;11.05;2.50;;;;;;;-142.57;34.06;115900.28;5014992;28;20026;-82
2023/09/01 09:42:43;;;;;;;7.45;2.72;;;;;;;-142.57;34.50;115900.28;4984539;28;20106;-82
2023/09/01 09:45:22;;;;;;;9.30;2.38;;;;;;;-142.57;34.47;115900.28;4974828;28;20429;-80
2023/09/01 09:47:49;;;;;;;8.90;2.58;;;;;;;-142.57;34.09;115900.28;4976988;28;20043;-80
2023/09/01 09:50:17;;;;;;;5.35;2.33;;;;;;;-142.57;34.31;115900.28;4995863;28;20038;-80
2023/09/01 09:52:48;;;;;;;7.05;2.03;;;;;;;-142.57;33.69;115900.28;4983730;28;20066;-80
2023/09/01 09:55:24;;;;;;;6.82;2.15;;;;;;;-142.57;32.38;115900.28;4974180;28;20057;-78
2023/09/01 09:57:51;;;;;;;6.50;2.63;;;;;;;-142.57;33.65;115900.28;4975343;28;20046;-85
2023/09/01 10:00:20;;;;;;;7.05;2.42;;;;;;;-142.57;34.33;115900.28;4975637;28;20031;-80
2023/09/01 10:02:56;;;;;;;9.43;2.95;;;;;;;-142.57;34.98;115900.28;4975343;28;20033;-83
2023/09/01 10:05:23;;;;;;;9.02;2.20;;;;;;;-142.57;34.75;115900.28;4976804;28;20035;-85
2023/09/01 10:07:51;;;;;;;11.93;4.15;;;;;;;-142.57;35.31;115900.28;4976912;28;20050;-81
2023/09/01 10:10:17;;;;;;;12.55;3.10;;;;;;;-142.57;33.39;115900.28;4975661;28;20105;-82
2023/09/01 10:12:42;;;;;;;23.27;3.72;;;;;;;-142.57;32.21;115900.28;4976731;28;20039;-82
2023/09/01 10:15:14;;;;;;;10.75;2.33;;;;;;;-142.57;31.48;115900.28;4976243;28;20027;-80
2023/09/01 10:17:42;;;;;;;10.98;2.30;;;;;;;-142.57;32.14;115900.28;4975746;28;20042;-82
2023/09/01 10:20:08;;;;;;;10.35;2.67;;;;;;;-142.57;31.35;115900.28;4981514;28;20085;-80
2023/09/01 10:22:42;;;;;;;6.97;2.78;;;;;;;-142.57;31.72;115900.28;4976849;28;20030;-78
2023/09/01 10:25:17;;;;;;;8.63;2.58;;;;;;;-142.57;32.15;115900.28;4974628;28;20062;-80
2023/09/01 10:28:03;;;;;;;8.60;2.33;;;;;;;-142.57;31.55;115900.28;4976129;28;20049;-79
2023/09/01 10:30:31;;;;;;;7.20;2.40;;;;;;;-142.57;31.96;115900.28;4976028;28;20043;-82
2023/09/01 10:33:22;;;;;;;10.02;2.65;;;;;;;-142.57;31.16;115900.28;4976091;28;20023;-84
2023/09/01 10:35:53;;;;;;;10.20;2.30;;;;;;;-142.57;32.51;115900.28;4979486;28;20035;-80
2023/09/01 10:38:21;;;;;;;12.55;2.97;;;;;;;-142.57;32.13;115900.28;4980095;28;20123;-83
2023/09/01 10:40:51;;;;;;;6.10;2.60;;;;;;;-142.57;31.98;115900.28;4983609;28;20050;-84
2023/09/01 10:43:33;;;;;;;6.88;2.63;;;;;;;-142.57;31.57;115900.28;4982660;28;20042;-83
2023/09/01 10:46:23;;;;;;;9.45;2.53;;;;;;;-142.57;31.29;115900.28;4978317;28;20166;-84
2023/09/01 10:48:56;;;;;;;6.32;2.53;;;;;;;-142.57;31.10;115900.28;4972030;28;20047;-85
2023/09/01 10:51:33;;;;;;;6.43;2.60;;;;;;;-142.57;32.15;115900.28;4976669;28;20085;-85
2023/09/01 10:54:02;;;;;;;12.25;2.25;;;;;;;-142.57;32.32;115900.28;4975182;28;20038;-86
2023/09/01 10:56:29;;;;;;;8.45;2.70;;;;;;;-142.57;31.50;115900.28;4990630;28;20084;-87
2023/09/01 10:58:58;;;;;;;9.10;2.67;;;;;;;-142.57;31.40;115900.28;4994004;28;20399;-87
2023/09/01 11:01:36;;;;;;;5.78;2.45;;;;;;;-142.57;30.70;115900.28;4978204;28;20511;-84
2023/09/01 11:04:14;;;;;;;11.70;2.47;;;;;;;-142.57;31.39;115900.28;4996593;28;20034;-87
2023/09/01 11:06:58;;;;;;;8.20;3.08;;;;;;;-142.57;29.84;115900.28;4997355;28;20085;-86
2023/09/01 11:09:42;;;;;;;10.23;3.10;;;;;;;-142.57;29.48;115900.28;5000781;28;20050;-87
2023/09/01 11:12:10;;;;;;;4.97;2.10;;;;;;;-142.57;29.90;115900.28;5007780;28;20053;-86
2023/09/01 11:14:39;;;;;;;5.35;2.08;;;;;;;-142.57;30.01;115900.28;4999721;28;20030;-84